sensor_id;sensor_type;location;lat;lon;timestamp;pressure;altitude;pressure_sealevel;temperature;humidity
10638;BME280;47007;49.252;8.904;2022-07-29T00:01:14;99597.78;;;22.62;100.00
10638;BME280;47007;49.252;8.904;2022-07-29T00:03:45;99595.34;;;22.60;100.00
10638;BME280;47007;49.252;8.904;2022-07-29T00:06:12;99582.91;;;22.49;100.00
10638;BME280;47007;49.252;8.904;2022-07-29T00:08:38;99588.03;;;22.45;100.00
10638;BME280;47007;49.252;8.904;2022-07-29T00:11:05;99605.28;;;22.44;100.00
10638;BME280;47007;49.252;8.904;2022-07-29T00:13:32;99504.13;;;21.84;100.00
10638;BME280;47007;49.252;8.904;2022-07-29T00:15:59;99596.66;;;22.37;100.00
10638;BME280;47007;49.252;8.904;2022-07-29T00:18:31;99589.88;;;22.35;100.00
10638;BME280;47007;49.252;8.904;2022-07-29T00:20:58;99575.53;;;22.24;100.00
10638;BME280;47007;49.252;8.904;2022-07-29T00:23:24;99570.34;;;22.07;100.00
10638;BME280;47007;49.252;8.904;2022-07-29T00:25:51;99563.22;;;21.91;100.00
10638;BME280;47007;49.252;8.904;2022-07-29T00:28:18;99519.94;;;21.61;100.00
10638;BME280;47007;49.252;8.904;2022-07-29T00:30:45;99545.28;;;21.65;100.00
10638;BME280;47007;49.252;8.904;2022-07-29T00:33:11;99564.47;;;21.68;100.00
10638;BME280;47007;49.252;8.904;2022-07-29T00:35:38;99566.03;;;21.59;100.00
10638;BME280;47007;49.252;8.904;2022-07-29T00:38:16;99566.56;;;21.51;100.00
10638;BME280;47007;49.252;8.904;2022-07-29T00:40:43;99567.03;;;21.43;100.00
10638;BME280;47007;49.252;8.904;2022-07-29T00:43:11;99572.09;;;21.39;100.00
10638;BME280;47007;49.252;8.904;2022-07-29T00:45:42;99572.34;;;21.33;100.00
10638;BME280;47007;49.252;8.904;2022-07-29T00:48:09;99523.06;;;21.05;100.00
10638;BME280;47007;49.252;8.904;2022-07-29T00:50:37;99563.31;;;21.17;100.00
10638;BME280;47007;49.252;8.904;2022-07-29T00:53:06;99576.75;;;21.12;100.00
10638;BME280;47007;49.252;8.904;2022-07-29T00:55:34;99575.91;;;21.06;100.00
10638;BME280;47007;49.252;8.904;2022-07-29T00:58:01;99546.66;;;20.88;100.00
10638;BME280;47007;49.252;8.904;2022-07-29T01:00:28;99567.72;;;20.96;100.00
10638;BME280;47007;49.252;8.904;2022-07-29T01:02:56;99564.56;;;21.04;100.00
10638;BME280;47007;49.252;8.904;2022-07-29T01:05:24;99565.72;;;21.13;100.00
10638;BME280;47007;49.252;8.904;2022-07-29T01:08:14;99563.63;;;21.21;100.00
10638;BME280;47007;49.252;8.904;2022-07-29T01:10:42;99566.34;;;21.21;100.00
10638;BME280;47007;49.252;8.904;2022-07-29T01:13:14;99562.81;;;21.20;100.00
10638;BME280;47007;49.252;8.904;2022-07-29T01:15:56;99573.09;;;21.23;100.00
10638;BME280;47007;49.252;8.904;2022-07-29T01:18:37;99560.84;;;21.10;100.00
10638;BME280;47007;49.252;8.904;2022-07-29T01:21:44;99562.50;;;21.16;100.00
10638;BME280;47007;49.252;8.904;2022-07-29T01:29:54;99572.88;;;21.30;100.00
10638;BME280;47007;49.252;8.904;2022-07-29T01:32:26;99551.28;;;21.25;100.00
10638;BME280;47007;49.252;8.904;2022-07-29T01:35:35;99569.59;;;21.28;100.00
10638;BME280;47007;49.252;8.904;2022-07-29T01:38:20;99565.34;;;21.32;100.00
10638;BME280;47007;49.252;8.904;2022-07-29T01:40:53;99558.31;;;21.31;100.00
10638;BME280;47007;49.252;8.904;2022-07-29T01:43:40;99533.91;;;21.10;100.00
10638;BME280;47007;49.252;8.904;2022-07-29T01:46:13;99565.72;;;21.13;100.00
10638;BME280;47007;49.252;8.904;2022-07-29T01:48:50;99508.31;;;20.76;100.00
10638;BME280;47007;49.252;8.904;2022-07-29T01:51:23;99562.16;;;21.08;100.00
10638;BME280;47007;49.252;8.904;2022-07-29T01:54:08;99532.97;;;20.95;100.00
10638;BME280;47007;49.252;8.904;2022-07-29T01:56:38;99540.22;;;20.94;100.00
10638;BME280;47007;49.252;8.904;2022-07-29T01:59:07;99563.22;;;21.07;100.00
10638;BME280;47007;49.252;8.904;2022-07-29T02:01:36;99570.25;;;21.08;100.00
10638;BME280;47007;49.252;8.904;2022-07-29T02:04:05;99499.69;;;20.74;100.00
10638;BME280;47007;49.252;8.904;2022-07-29T02:06:34;99558.97;;;21.11;100.00
10638;BME280;47007;49.252;8.904;2022-07-29T02:09:04;99548.94;;;21.01;100.00
10638;BME280;47007;49.252;8.904;2022-07-29T02:11:35;99553.19;;;20.97;100.00
10638;BME280;47007;49.252;8.904;2022-07-29T02:14:04;99565.84;;;20.97;100.00
10638;BME280;47007;49.252;8.904;2022-07-29T02:16:33;99550.19;;;20.94;100.00
10638;BME280;47007;49.252;8.904;2022-07-29T02:19:02;99549.72;;;21.02;100.00
10638;BME280;47007;49.252;8.904;2022-07-29T02:21:30;99554.63;;;21.10;100.00
10638;BME280;47007;49.252;8.904;2022-07-29T02:24:01;99555.72;;;21.09;100.00
10638;BME280;47007;49.252;8.904;2022-07-29T02:26:29;99549.00;;;21.11;100.00
10638;BME280;47007;49.252;8.904;2022-07-29T02:28:57;99547.69;;;21.14;100.00
10638;BME280;47007;49.252;8.904;2022-07-29T02:31:28;99541.53;;;21.19;100.00
10638;BME280;47007;49.252;8.904;2022-07-29T02:33:57;99530.09;;;21.06;100.00
10638;BME280;47007;49.252;8.904;2022-07-29T02:36:30;99537.59;;;20.99;100.00
10638;BME280;47007;49.252;8.904;2022-07-29T02:38:59;99558.84;;;20.96;100.00
10638;BME280;47007;49.252;8.904;2022-07-29T02:41:58;99554.50;;;20.95;100.00
10638;BME280;47007;49.252;8.904;2022-07-29T02:44:27;99544.50;;;20.90;100.00
10638;BME280;47007;49.252;8.904;2022-07-29T02:47:20;99548.88;;;20.96;100.00
10638;BME280;47007;49.252;8.904;2022-07-29T02:52:58;99537.88;;;20.71;100.00
10638;BME280;47007;49.252;8.904;2022-07-29T02:55:40;99530.16;;;20.53;100.00
10638;BME280;47007;49.252;8.904;2022-07-29T03:01:04;99538.72;;;20.44;100.00
10638;BME280;47007;49.252;8.904;2022-07-29T03:03:36;99550.13;;;20.57;100.00
10638;BME280;47007;49.252;8.904;2022-07-29T03:06:04;99519.94;;;20.50;100.00
10638;BME280;47007;49.252;8.904;2022-07-29T03:08:34;99527.06;;;20.66;100.00
10638;BME280;47007;49.252;8.904;2022-07-29T03:11:01;99545.22;;;20.80;100.00
10638;BME280;47007;49.252;8.904;2022-07-29T03:13:29;99542.63;;;20.91;100.00
10638;BME280;47007;49.252;8.904;2022-07-29T03:15:57;99540.16;;;20.84;100.00
10638;BME280;47007;49.252;8.904;2022-07-29T03:18:25;99540.97;;;20.85;100.00
10638;BME280;47007;49.252;8.904;2022-07-29T03:20:52;99532.88;;;20.85;100.00
10638;BME280;47007;49.252;8.904;2022-07-29T03:23:20;99539.34;;;20.84;100.00
10638;BME280;47007;49.252;8.904;2022-07-29T03:25:49;99536.88;;;20.77;100.00
10638;BME280;47007;49.252;8.904;2022-07-29T03:28:16;99512.44;;;20.57;100.00
10638;BME280;47007;49.252;8.904;2022-07-29T03:30:45;99505.41;;;20.51;100.00
10638;BME280;47007;49.252;8.904;2022-07-29T03:33:12;99535.59;;;20.58;100.00
10638;BME280;47007;49.252;8.904;2022-07-29T03:35:39;99523.13;;;20.47;100.00
10638;BME280;47007;49.252;8.904;2022-07-29T03:38:09;99513.88;;;20.37;100.00
10638;BME280;47007;49.252;8.904;2022-07-29T03:40:49;99533.31;;;20.44;100.00
10638;BME280;47007;49.252;8.904;2022-07-29T03:43:18;99526.19;;;20.33;100.00
10638;BME280;47007;49.252;8.904;2022-07-29T03:45:49;99532.53;;;20.22;100.00
10638;BME280;47007;49.252;8.904;2022-07-29T03:48:20;99542.81;;;20.25;100.00
10638;BME280;47007;49.252;8.904;2022-07-29T03:50:48;99532.72;;;20.16;100.00
10638;BME280;47007;49.252;8.904;2022-07-29T03:53:15;99545.44;;;20.20;100.00
10638;BME280;47007;49.252;8.904;2022-07-29T03:55:45;99538.09;;;20.16;100.00
10638;BME280;47007;49.252;8.904;2022-07-29T03:58:14;99546.44;;;20.14;100.00
10638;BME280;47007;49.252;8.904;2022-07-29T04:00:42;99526.38;;;20.00;100.00
10638;BME280;47007;49.252;8.904;2022-07-29T04:03:09;99542.28;;;20.01;100.00
10638;BME280;47007;49.252;8.904;2022-07-29T04:05:37;99499.91;;;19.70;100.00
10638;BME280;47007;49.252;8.904;2022-07-29T04:08:04;99521.94;;;19.89;100.00
10638;BME280;47007;49.252;8.904;2022-07-29T04:10:31;99520.00;;;19.84;100.00
10638;BME280;47007;49.252;8.904;2022-07-29T04:13:01;99553.88;;;20.07;100.00
10638;BME280;47007;49.252;8.904;2022-07-29T04:15:28;99515.50;;;19.90;100.00
10638;BME280;47007;49.252;8.904;2022-07-29T04:17:56;99550.78;;;20.15;100.00
10638;BME280;47007;49.252;8.904;2022-07-29T04:20:23;99519.13;;;20.00;100.00
10638;BME280;47007;49.252;8.904;2022-07-29T04:22:50;99556.16;;;20.15;100.00
10638;BME280;47007;49.252;8.904;2022-07-29T04:25:16;99526.38;;;20.00;100.00
10638;BME280;47007;49.252;8.904;2022-07-29T04:27:43;99561.00;;;20.18;100.00
10638;BME280;47007;49.252;8.904;2022-07-29T04:30:26;99557.81;;;20.21;100.00
10638;BME280;47007;49.252;8.904;2022-07-29T04:32:53;99550.94;;;20.08;100.00
10638;BME280;47007;49.252;8.904;2022-07-29T04:35:20;99556.91;;;20.11;100.00
10638;BME280;47007;49.252;8.904;2022-07-29T04:37:47;99547.19;;;20.09;100.00
10638;BME280;47007;49.252;8.904;2022-07-29T04:40:14;99550.13;;;20.08;100.00
10638;BME280;47007;49.252;8.904;2022-07-29T04:42:41;99565.28;;;20.14;100.00
10638;BME280;47007;49.252;8.904;2022-07-29T04:45:12;99563.28;;;20.04;100.00
10638;BME280;47007;49.252;8.904;2022-07-29T04:47:39;99571.59;;;20.03;100.00
10638;BME280;47007;49.252;8.904;2022-07-29T04:50:07;99563.03;;;20.06;100.00
10638;BME280;47007;49.252;8.904;2022-07-29T04:52:34;99561.00;;;20.18;100.00
10638;BME280;47007;49.252;8.904;2022-07-29T04:55:02;99535.53;;;20.04;100.00
10638;BME280;47007;49.252;8.904;2022-07-29T04:57:29;99558.50;;;20.33;100.00
10638;BME280;47007;49.252;8.904;2022-07-29T04:59:56;99564.50;;;20.40;100.00
10638;BME280;47007;49.252;8.904;2022-07-29T05:02:23;99557.22;;;20.36;100.00
10638;BME280;47007;49.252;8.904;2022-07-29T05:04:50;99563.16;;;20.38;100.00
10638;BME280;47007;49.252;8.904;2022-07-29T05:07:17;99564.63;;;20.29;100.00
10638;BME280;47007;49.252;8.904;2022-07-29T05:09:44;99549.13;;;20.14;100.00
10638;BME280;47007;49.252;8.904;2022-07-29T05:12:13;99536.75;;;20.13;100.00
10638;BME280;47007;49.252;8.904;2022-07-29T05:14:40;99547.13;;;20.26;100.00
10638;BME280;47007;49.252;8.904;2022-07-29T05:17:06;99576.75;;;20.53;100.00
10638;BME280;47007;49.252;8.904;2022-07-29T05:19:33;99584.06;;;20.58;100.00
10638;BME280;47007;49.252;8.904;2022-07-29T05:22:05;99558.03;;;20.63;100.00
10638;BME280;47007;49.252;8.904;2022-07-29T05:24:31;99577.38;;;21.19;100.00
10638;BME280;47007;49.252;8.904;2022-07-29T05:26:58;99581.44;;;21.64;100.00
10638;BME280;47007;49.252;8.904;2022-07-29T05:29:25;99575.56;;;21.77;100.00
10638;BME280;47007;49.252;8.904;2022-07-29T05:32:10;99565.19;;;22.01;100.00
10638;BME280;47007;49.252;8.904;2022-07-29T05:34:37;99584.47;;;22.25;100.00
10638;BME280;47007;49.252;8.904;2022-07-29T05:37:19;99586.09;;;22.31;100.00
10638;BME280;47007;49.252;8.904;2022-07-29T05:39:46;99568.53;;;22.28;100.00
10638;BME280;47007;49.252;8.904;2022-07-29T05:42:24;99589.31;;;22.23;100.00
10638;BME280;47007;49.252;8.904;2022-07-29T05:44:51;99584.16;;;22.21;100.00
10638;BME280;47007;49.252;8.904;2022-07-29T05:47:18;99579.88;;;22.40;100.00
10638;BME280;47007;49.252;8.904;2022-07-29T05:49:44;99591.78;;;22.44;100.00
10638;BME280;47007;49.252;8.904;2022-07-29T05:52:11;99598.81;;;22.50;100.00
10638;BME280;47007;49.252;8.904;2022-07-29T05:54:39;99589.63;;;22.41;100.00
10638;BME280;47007;49.252;8.904;2022-07-29T05:57:06;99585.81;;;22.32;100.00
10638;BME280;47007;49.252;8.904;2022-07-29T05:59:37;99591.78;;;22.39;100.00
10638;BME280;47007;49.252;8.904;2022-07-29T06:02:04;99581.22;;;22.38;100.00
10638;BME280;47007;49.252;8.904;2022-07-29T06:04:32;99600.69;;;22.40;100.00
10638;BME280;47007;49.252;8.904;2022-07-29T06:07:00;99563.34;;;22.16;100.00
10638;BME280;47007;49.252;8.904;2022-07-29T06:09:27;99574.19;;;22.27;100.00
10638;BME280;47007;49.252;8.904;2022-07-29T06:11:54;99599.91;;;22.54;100.00
10638;BME280;47007;49.252;8.904;2022-07-29T06:14:21;99548.53;;;22.19;100.00
10638;BME280;47007;49.252;8.904;2022-07-29T06:16:48;99589.88;;;22.40;100.00
10638;BME280;47007;49.252;8.904;2022-07-29T06:19:15;99583.94;;;22.33;100.00
10638;BME280;47007;49.252;8.904;2022-07-29T06:21:43;99607.44;;;22.37;100.00
10638;BME280;47007;49.252;8.904;2022-07-29T06:24:14;99606.06;;;22.30;100.00
10638;BME280;47007;49.252;8.904;2022-07-29T06:26:42;99621.47;;;22.34;100.00
10638;BME280;47007;49.252;8.904;2022-07-29T06:29:09;99602.03;;;22.32;100.00
10638;BME280;47007;49.252;8.904;2022-07-29T06:31:39;99610.41;;;22.41;100.00
10638;BME280;47007;49.252;8.904;2022-07-29T06:34:06;99615.03;;;22.45;100.00
10638;BME280;47007;49.252;8.904;2022-07-29T06:36:37;99613.44;;;22.65;100.00
10638;BME280;47007;49.252;8.904;2022-07-29T06:39:28;99613.47;;;22.75;100.00
10638;BME280;47007;49.252;8.904;2022-07-29T06:41:54;99620.25;;;22.77;100.00
10638;BME280;47007;49.252;8.904;2022-07-29T06:44:23;99598.38;;;22.79;100.00
10638;BME280;47007;49.252;8.904;2022-07-29T06:46:51;99608.66;;;22.92;100.00
10638;BME280;47007;49.252;8.904;2022-07-29T06:49:18;99602.97;;;22.78;100.00
10638;BME280;47007;49.252;8.904;2022-07-29T06:51:44;99615.97;;;22.97;100.00
10638;BME280;47007;49.252;8.904;2022-07-29T06:54:11;99607.03;;;23.06;100.00
10638;BME280;47007;49.252;8.904;2022-07-29T06:56:38;99620.03;;;23.35;100.00
10638;BME280;47007;49.252;8.904;2022-07-29T06:59:09;99621.38;;;23.57;100.00
10638;BME280;47007;49.252;8.904;2022-07-29T07:01:40;99626.75;;;23.68;100.00
10638;BME280;47007;49.252;8.904;2022-07-29T07:04:10;99620.25;;;23.84;100.00
10638;BME280;47007;49.252;8.904;2022-07-29T07:06:37;99609.66;;;23.92;100.00
10638;BME280;47007;49.252;8.904;2022-07-29T07:09:04;99617.75;;;24.62;100.00
10638;BME280;47007;49.252;8.904;2022-07-29T07:11:31;99630.31;;;24.87;100.00
10638;BME280;47007;49.252;8.904;2022-07-29T07:13:58;99627.75;;;24.72;100.00
10638;BME280;47007;49.252;8.904;2022-07-29T07:16:30;99613.03;;;24.78;100.00
10638;BME280;47007;49.252;8.904;2022-07-29T07:18:57;99633.09;;;24.77;100.00
10638;BME280;47007;49.252;8.904;2022-07-29T07:21:24;99612.69;;;24.94;100.00
10638;BME280;47007;49.252;8.904;2022-07-29T07:23:51;99599.69;;;25.25;100.00
10638;BME280;47007;49.252;8.904;2022-07-29T07:26:18;99616.63;;;25.41;99.36
10638;BME280;47007;49.252;8.904;2022-07-29T07:28:44;99605.25;;;25.39;97.80
10638;BME280;47007;49.252;8.904;2022-07-29T07:31:11;99609.63;;;25.69;97.56
10638;BME280;47007;49.252;8.904;2022-07-29T07:33:38;99595.97;;;25.74;94.70
10638;BME280;47007;49.252;8.904;2022-07-29T07:36:05;99612.16;;;25.84;93.44
10638;BME280;47007;49.252;8.904;2022-07-29T07:38:32;99621.97;;;26.04;91.30
10638;BME280;47007;49.252;8.904;2022-07-29T07:40:59;99613.19;;;25.64;93.95
10638;BME280;47007;49.252;8.904;2022-07-29T07:43:26;99616.16;;;25.68;95.41
10638;BME280;47007;49.252;8.904;2022-07-29T07:45:53;99527.84;;;24.94;95.68
10638;BME280;47007;49.252;8.904;2022-07-29T07:48:20;99611.63;;;25.24;98.27
10638;BME280;47007;49.252;8.904;2022-07-29T07:50:46;99610.47;;;25.01;100.00
10638;BME280;47007;49.252;8.904;2022-07-29T07:53:15;99617.50;;;25.02;100.00
10638;BME280;47007;49.252;8.904;2022-07-29T07:55:43;99605.28;;;25.05;100.00
10638;BME280;47007;49.252;8.904;2022-07-29T07:58:30;99623.38;;;25.77;98.17
10638;BME280;47007;49.252;8.904;2022-07-29T08:00:56;99623.53;;;26.34;91.46
10638;BME280;47007;49.252;8.904;2022-07-29T08:03:23;99625.47;;;26.33;90.10
10638;BME280;47007;49.252;8.904;2022-07-29T08:05:50;99619.38;;;26.60;87.55
10638;BME280;47007;49.252;8.904;2022-07-29T08:08:18;99617.88;;;27.24;85.94
10638;BME280;47007;49.252;8.904;2022-07-29T08:10:45;99615.81;;;27.48;80.75
10638;BME280;47007;49.252;8.904;2022-07-29T08:13:28;99604.75;;;27.59;80.45
10638;BME280;47007;49.252;8.904;2022-07-29T08:15:56;99615.09;;;27.89;79.72
10638;BME280;47007;49.252;8.904;2022-07-29T08:18:45;99611.56;;;27.88;78.24
10638;BME280;47007;49.252;8.904;2022-07-29T08:21:14;99605.75;;;27.16;78.96
10638;BME280;47007;49.252;8.904;2022-07-29T08:23:43;99614.47;;;26.43;84.20
10638;BME280;47007;49.252;8.904;2022-07-29T08:26:25;99614.28;;;25.87;88.84
10638;BME280;47007;49.252;8.904;2022-07-29T08:28:52;99601.38;;;26.22;86.66
10638;BME280;47007;49.252;8.904;2022-07-29T08:31:18;99613.63;;;27.18;83.69
10638;BME280;47007;49.252;8.904;2022-07-29T08:33:45;99609.44;;;27.85;79.27
10638;BME280;47007;49.252;8.904;2022-07-29T08:36:12;99615.19;;;28.39;76.68
10638;BME280;47007;49.252;8.904;2022-07-29T08:38:39;99616.66;;;28.94;73.21
10638;BME280;47007;49.252;8.904;2022-07-29T08:41:06;99609.63;;;29.38;69.48
10638;BME280;47007;49.252;8.904;2022-07-29T08:43:33;99595.72;;;29.57;67.31
10638;BME280;47007;49.252;8.904;2022-07-29T08:46:03;99611.88;;;29.22;68.45
10638;BME280;47007;49.252;8.904;2022-07-29T08:48:30;99598.69;;;28.93;69.62
10638;BME280;47007;49.252;8.904;2022-07-29T08:50:58;99586.91;;;28.84;70.93
10638;BME280;47007;49.252;8.904;2022-07-29T08:53:28;99608.59;;;28.53;74.18
10638;BME280;47007;49.252;8.904;2022-07-29T08:55:55;99608.50;;;28.45;74.95
10638;BME280;47007;49.252;8.904;2022-07-29T08:58:23;99609.75;;;28.39;74.58
10638;BME280;47007;49.252;8.904;2022-07-29T09:00:54;99610.06;;;28.23;74.33
10638;BME280;47007;49.252;8.904;2022-07-29T09:03:32;99612.56;;;28.20;75.59
10638;BME280;47007;49.252;8.904;2022-07-29T09:06:01;99611.94;;;28.50;74.38
10638;BME280;47007;49.252;8.904;2022-07-29T09:08:28;99612.16;;;28.90;71.73
10638;BME280;47007;49.252;8.904;2022-07-29T09:10:55;99613.66;;;29.41;70.94
10638;BME280;47007;49.252;8.904;2022-07-29T09:13:29;99607.38;;;29.40;67.65
10638;BME280;47007;49.252;8.904;2022-07-29T09:15:56;99617.28;;;29.14;67.99
10638;BME280;47007;49.252;8.904;2022-07-29T09:21:04;99600.66;;;29.46;66.73
10638;BME280;47007;49.252;8.904;2022-07-29T09:24:13;99610.97;;;29.05;69.95
10638;BME280;47007;49.252;8.904;2022-07-29T09:26:43;99608.84;;;29.77;66.06
10638;BME280;47007;49.252;8.904;2022-07-29T09:29:17;99606.06;;;29.69;64.66
10638;BME280;47007;49.252;8.904;2022-07-29T09:31:47;99610.63;;;30.21;64.81
10638;BME280;47007;49.252;8.904;2022-07-29T09:34:16;99604.66;;;30.19;61.78
10638;BME280;47007;49.252;8.904;2022-07-29T09:36:49;99605.41;;;29.63;63.19
10638;BME280;47007;49.252;8.904;2022-07-29T09:41:57;99610.13;;;28.46;66.63
10638;BME280;47007;49.252;8.904;2022-07-29T09:44:25;99590.06;;;28.14;68.80
10638;BME280;47007;49.252;8.904;2022-07-29T09:47:03;99601.44;;;28.44;69.95
10638;BME280;47007;49.252;8.904;2022-07-29T09:49:35;99571.91;;;28.59;69.74
10638;BME280;47007;49.252;8.904;2022-07-29T09:52:08;99602.38;;;29.20;68.68
10638;BME280;47007;49.252;8.904;2022-07-29T09:54:35;99594.66;;;29.67;65.73
10638;BME280;47007;49.252;8.904;2022-07-29T09:57:21;99587.53;;;29.57;66.40
10638;BME280;47007;49.252;8.904;2022-07-29T09:59:57;99594.50;;;30.11;63.97
10638;BME280;47007;49.252;8.904;2022-07-29T10:02:33;99597.19;;;30.59;61.35
10638;BME280;47007;49.252;8.904;2022-07-29T10:05:02;99599.06;;;30.42;60.44
10638;BME280;47007;49.252;8.904;2022-07-29T10:07:52;99605.41;;;30.77;60.61
10638;BME280;47007;49.252;8.904;2022-07-29T10:10:26;99594.47;;;31.11;58.37
10638;BME280;47007;49.252;8.904;2022-07-29T10:12:58;99601.63;;;31.50;57.98
10638;BME280;47007;49.252;8.904;2022-07-29T10:15:35;99602.09;;;31.43;56.29
10638;BME280;47007;49.252;8.904;2022-07-29T10:18:08;99589.31;;;30.84;57.31
10638;BME280;47007;49.252;8.904;2022-07-29T10:20:35;99582.16;;;30.14;59.12
10638;BME280;47007;49.252;8.904;2022-07-29T10:23:02;99591.88;;;30.63;59.61
10638;BME280;47007;49.252;8.904;2022-07-29T10:25:30;99584.16;;;30.74;59.57
10638;BME280;47007;49.252;8.904;2022-07-29T10:27:57;99591.22;;;31.26;58.66
10638;BME280;47007;49.252;8.904;2022-07-29T10:30:25;99580.63;;;31.63;56.17
10638;BME280;47007;49.252;8.904;2022-07-29T10:43:58;99582.34;;;29.78;58.91
10638;BME280;47007;49.252;8.904;2022-07-29T10:46:27;99571.50;;;30.04;58.45
10638;BME280;47007;49.252;8.904;2022-07-29T10:49:04;99579.47;;;30.48;58.00
10638;BME280;47007;49.252;8.904;2022-07-29T10:57:22;99581.25;;;30.96;55.26
10638;BME280;47007;49.252;8.904;2022-07-29T11:02:44;99578.69;;;30.91;53.38
10638;BME280;47007;49.252;8.904;2022-07-29T11:05:53;99572.72;;;30.97;52.36
10638;BME280;47007;49.252;8.904;2022-07-29T11:08:22;99564.16;;;31.07;52.14
10638;BME280;47007;49.252;8.904;2022-07-29T11:13:51;99560.41;;;31.38;51.03
10638;BME280;47007;49.252;8.904;2022-07-29T11:16:22;99561.84;;;31.82;50.91
10638;BME280;47007;49.252;8.904;2022-07-29T11:21:59;99547.75;;;31.92;49.93
10638;BME280;47007;49.252;8.904;2022-07-29T11:24:30;99541.81;;;32.40;49.73
10638;BME280;47007;49.252;8.904;2022-07-29T11:27:15;99525.09;;;32.33;48.78
10638;BME280;47007;49.252;8.904;2022-07-29T11:32:20;99521.88;;;32.73;48.84
10638;BME280;47007;49.252;8.904;2022-07-29T11:34:50;99536.88;;;32.55;49.17
10638;BME280;47007;49.252;8.904;2022-07-29T11:38:27;99537.06;;;32.29;49.41
10638;BME280;47007;49.252;8.904;2022-07-29T11:46:41;99522.06;;;32.68;49.09
10638;BME280;47007;49.252;8.904;2022-07-29T11:49:05;99497.00;;;32.90;48.19
10638;BME280;47007;49.252;8.904;2022-07-29T11:51:38;99492.47;;;33.06;48.06
10638;BME280;47007;49.252;8.904;2022-07-29T11:54:16;99490.56;;;32.32;47.76
10638;BME280;47007;49.252;8.904;2022-07-29T11:57:08;99514.63;;;32.06;47.75
10638;BME280;47007;49.252;8.904;2022-07-29T11:59:44;99514.63;;;32.06;48.93
10638;BME280;47007;49.252;8.904;2022-07-29T12:02:12;99520.41;;;31.46;49.31
10638;BME280;47007;49.252;8.904;2022-07-29T12:05:33;99517.06;;;31.31;49.49
10638;BME280;47007;49.252;8.904;2022-07-29T12:10:47;99516.69;;;31.50;49.16
10638;BME280;47007;49.252;8.904;2022-07-29T12:13:15;99496.16;;;32.24;47.67
10638;BME280;47007;49.252;8.904;2022-07-29T12:15:54;99442.13;;;31.74;45.81
10638;BME280;47007;49.252;8.904;2022-07-29T12:18:26;99504.28;;;32.74;46.54
10638;BME280;47007;49.252;8.904;2022-07-29T12:21:00;99512.44;;;32.41;47.63
10638;BME280;47007;49.252;8.904;2022-07-29T12:23:31;99495.53;;;32.18;46.94
10638;BME280;47007;49.252;8.904;2022-07-29T12:26:04;99514.44;;;31.43;47.39
10638;BME280;47007;49.252;8.904;2022-07-29T12:28:38;99489.41;;;31.24;47.53
10638;BME280;47007;49.252;8.904;2022-07-29T12:31:14;99484.06;;;31.66;48.02
10638;BME280;47007;49.252;8.904;2022-07-29T12:34:01;99507.41;;;31.72;47.38
10638;BME280;47007;49.252;8.904;2022-07-29T12:36:28;99522.94;;;31.59;48.05
10638;BME280;47007;49.252;8.904;2022-07-29T12:38:55;99516.72;;;31.41;47.89
10638;BME280;47007;49.252;8.904;2022-07-29T12:41:22;99521.63;;;31.65;47.71
10638;BME280;47007;49.252;8.904;2022-07-29T12:43:55;99503.91;;;31.16;46.91
10638;BME280;47007;49.252;8.904;2022-07-29T12:46:40;99512.78;;;31.04;47.56
10638;BME280;47007;49.252;8.904;2022-07-29T12:49:07;99513.28;;;30.98;47.54
10638;BME280;47007;49.252;8.904;2022-07-29T12:51:38;99506.91;;;30.59;47.61
10638;BME280;47007;49.252;8.904;2022-07-29T12:54:10;99505.72;;;30.95;47.94
10638;BME280;47007;49.252;8.904;2022-07-29T12:56:38;99498.88;;;31.35;46.45
10638;BME280;47007;49.252;8.904;2022-07-29T13:01:41;99491.72;;;31.43;45.78
10638;BME280;47007;49.252;8.904;2022-07-29T13:04:08;99487.97;;;31.18;44.69
10638;BME280;47007;49.252;8.904;2022-07-29T13:06:41;99494.56;;;31.17;44.89
10638;BME280;47007;49.252;8.904;2022-07-29T13:09:20;99488.13;;;31.04;43.78
10638;BME280;47007;49.252;8.904;2022-07-29T13:11:51;99502.81;;;31.00;45.05
10638;BME280;47007;49.252;8.904;2022-07-29T13:14:45;99503.16;;;30.98;45.36
10638;BME280;47007;49.252;8.904;2022-07-29T13:17:13;99503.50;;;30.80;45.76
10638;BME280;47007;49.252;8.904;2022-07-29T13:19:44;99506.22;;;30.80;46.51
10638;BME280;47007;49.252;8.904;2022-07-29T13:22:13;99489.06;;;30.62;46.01
10638;BME280;47007;49.252;8.904;2022-07-29T13:27:17;99506.72;;;30.82;46.34
10638;BME280;47007;49.252;8.904;2022-07-29T13:29:44;99490.44;;;30.94;46.09
10638;BME280;47007;49.252;8.904;2022-07-29T13:32:11;99495.41;;;31.00;45.67
10638;BME280;47007;49.252;8.904;2022-07-29T13:34:39;99520.50;;;31.20;46.05
10638;BME280;47007;49.252;8.904;2022-07-29T13:37:06;99511.00;;;31.17;45.41
10638;BME280;47007;49.252;8.904;2022-07-29T13:39:32;99513.00;;;30.91;45.70
10638;BME280;47007;49.252;8.904;2022-07-29T13:42:08;99515.25;;;30.80;45.96
10638;BME280;47007;49.252;8.904;2022-07-29T13:44:36;99517.53;;;30.78;46.51
10638;BME280;47007;49.252;8.904;2022-07-29T13:47:03;99513.31;;;30.81;45.46
10638;BME280;47007;49.252;8.904;2022-07-29T13:49:30;99507.88;;;30.63;45.32
10638;BME280;47007;49.252;8.904;2022-07-29T13:51:57;99516.38;;;30.45;46.71
10638;BME280;47007;49.252;8.904;2022-07-29T13:54:24;99547.72;;;30.21;47.67
10638;BME280;47007;49.252;8.904;2022-07-29T13:56:52;99522.66;;;30.28;47.46
10638;BME280;47007;49.252;8.904;2022-07-29T13:59:19;99517.66;;;30.30;46.62
10638;BME280;47007;49.252;8.904;2022-07-29T14:01:46;99487.53;;;29.87;47.38
10638;BME280;47007;49.252;8.904;2022-07-29T14:04:14;99510.50;;;29.86;47.85
10638;BME280;47007;49.252;8.904;2022-07-29T14:06:42;99515.50;;;29.92;48.05
10638;BME280;47007;49.252;8.904;2022-07-29T14:09:09;99512.13;;;29.87;47.54
10638;BME280;47007;49.252;8.904;2022-07-29T14:11:36;99501.19;;;29.87;47.99
10638;BME280;47007;49.252;8.904;2022-07-29T14:14:04;99480.75;;;29.76;47.86